Decoded Metar for PAMH (MINCHUMINA in AK, USA) (IATA:MHM) | Meteo·Mobile Aviation Weather
aviador You're here:

PAMH Decoded Metar

MINCHUMINA in AK, USA
Report Time2019-02-17 15:56:00
UTC Time2019-02-17 16:42:19
Flight Rules vfr VFR
WindCalm
Visibility9999 m
Phenomena:N/A
Clouds:Broken 080 Hf
Overcast 095 Hf
Expected CloudBase > 1,200 ft AGL from Temp-Dew spread
Ceiling8,000 ft
Temp-13°C (ISA -27)
Dew Point-16°C (78% RH)
AAT-16.4°C
QNH1013 hPa
Density Alt-2,615 ft
Elevation702 ft
Report Wrong Elevation
Raw Report
PAMH 171556Z AUTO 00000KT 10SM BKN080 OVC095 M13/M16 A2991 RMK AO2
SLP885 T11281156 FZRANO=

Extra information for PAMH:More info

Metar Taf Metar & Taf Last 4 Metars F.Rules Stats Wind Profile Meteogram Temp Stats Airport Information Weather charts Add Link Nearby VenuesMetar ALERT Operation Metar Decoded Social comments

AIRNAV info for PAMH